createdAt,value
2018-07-20T04:27:52.284Z,94546.00
2018-07-20T04:30:25.515Z,94547.00
2018-07-20T04:32:57.830Z,94552.00
2018-07-20T04:35:30.371Z,94562.00
2018-07-20T04:38:08.321Z,94558.00
2018-07-20T04:40:45.644Z,94558.00
2018-07-20T04:43:25.326Z,94560.00
2018-07-20T04:45:57.796Z,94570.00
2018-07-20T04:48:30.043Z,94572.00
2018-07-20T04:51:02.342Z,94573.00
2018-07-20T04:53:36.824Z,94571.00
2018-07-20T04:56:10.281Z,94577.00
2018-07-20T04:58:43.844Z,94576.00
2018-07-20T05:01:17.047Z,94573.00
2018-07-20T05:03:51.432Z,94572.00
2018-07-20T05:06:24.409Z,94573.00
2018-07-20T05:08:57.692Z,94576.00
2018-07-20T05:11:30.849Z,94575.00
2018-07-20T05:14:04.286Z,94580.00
2018-07-20T05:16:38.061Z,94583.00
2018-07-20T05:19:11.320Z,94581.00
2018-07-20T05:21:43.845Z,94580.00
2018-07-20T05:24:17.774Z,94579.00
2018-07-20T05:26:51.452Z,94579.00
2018-07-20T05:29:24.790Z,94585.00
2018-07-20T05:31:57.361Z,94581.00
2018-07-20T05:34:29.922Z,94581.00
2018-07-20T05:37:02.222Z,94576.00
2018-07-20T05:39:34.749Z,94575.00
2018-07-20T05:42:07.336Z,94579.00
2018-07-20T05:44:39.596Z,94576.00
2018-07-20T05:47:12.105Z,94579.00
2018-07-20T05:49:43.439Z,94583.00
2018-07-20T05:52:15.527Z,94584.00
2018-07-20T05:54:47.791Z,94582.00
2018-07-20T05:57:20.068Z,94584.00
2018-07-20T05:59:52.208Z,94584.00
2018-07-20T06:02:24.607Z,94589.00
2018-07-20T06:04:56.889Z,94589.00
2018-07-20T06:07:29.191Z,94588.00
2018-07-20T06:10:01.794Z,94588.00
2018-07-20T06:12:33.779Z,94587.00
2018-07-20T06:15:06.243Z,94590.00
2018-07-20T06:17:38.356Z,94583.00
2018-07-20T06:20:11.075Z,94579.00
2018-07-20T06:22:43.375Z,94583.00
2018-07-20T06:25:16.751Z,94577.00
2018-07-20T06:27:48.851Z,94584.00
2018-07-20T06:30:21.319Z,94584.00
2018-07-20T06:32:53.742Z,94585.00
2018-07-20T06:35:27.159Z,94582.00
2018-07-20T06:38:01.461Z,94584.00
2018-07-20T06:40:35.193Z,94583.00
2018-07-20T06:43:09.535Z,94587.00
2018-07-20T06:45:43.486Z,94590.00
2018-07-20T06:48:20.615Z,94585.00
2018-07-20T06:50:54.084Z,94587.00
2018-07-20T06:53:28.410Z,94581.00
2018-07-20T06:56:05.801Z,94582.00
2018-07-20T06:58:38.904Z,94583.00
2018-07-20T07:01:14.047Z,94579.00
2018-07-20T07:03:47.557Z,94583.00
2018-07-20T07:06:21.472Z,94587.00
2018-07-20T07:08:54.900Z,94582.00
2018-07-20T07:11:28.551Z,94584.00
2018-07-20T07:14:02.871Z,94586.00
2018-07-20T07:16:37.291Z,94587.00
2018-07-20T07:19:09.244Z,94587.00
2018-07-20T07:21:42.772Z,94583.00
2018-07-20T07:24:16.001Z,94580.00
2018-07-20T07:26:50.757Z,94583.00
2018-07-20T07:29:28.549Z,94583.00
2018-07-20T07:32:03.148Z,94588.00
2018-07-20T07:34:36.586Z,94586.00
2018-07-20T07:37:10.897Z,94590.00
2018-07-20T07:39:44.179Z,94589.00
2018-07-20T07:42:18.419Z,94589.00
2018-07-20T07:44:52.114Z,94593.00
2018-07-20T07:47:26.482Z,94589.00
2018-07-20T07:50:00.288Z,94595.00
2018-07-20T07:52:34.300Z,94589.00
2018-07-20T07:55:08.906Z,94594.00
2018-07-20T07:57:42.026Z,94587.00
2018-07-20T08:00:15.660Z,94591.00
2018-07-20T08:02:49.583Z,94602.00
2018-07-20T08:05:23.301Z,94601.00
2018-07-20T08:07:55.637Z,94599.00
2018-07-20T08:10:33.319Z,94605.00
2018-07-20T08:13:06.986Z,94594.00
2018-07-20T08:15:40.429Z,94600.00
2018-07-20T08:18:14.327Z,94600.00
2018-07-20T08:20:47.405Z,94602.00
2018-07-20T08:23:20.977Z,94592.00
2018-07-20T08:25:53.974Z,94590.00
2018-07-20T08:28:27.830Z,94589.00
2018-07-20T08:31:01.910Z,94587.00
2018-07-20T08:33:35.216Z,94586.00
2018-07-20T08:36:10.806Z,94588.00
2018-07-20T08:38:45.378Z,94584.00
2018-07-20T08:41:19.568Z,94585.00
2018-07-20T08:43:53.473Z,94585.00
2018-07-20T08:46:27.177Z,94584.00
2018-07-20T08:49:01.741Z,94582.00
2018-07-20T08:51:35.308Z,94580.00
2018-07-20T08:54:09.705Z,94575.00
2018-07-20T08:56:45.532Z,94576.00
2018-07-20T08:59:19.901Z,94581.00
2018-07-20T09:01:54.284Z,94585.00
2018-07-20T09:04:28.186Z,94577.00
2018-07-20T09:07:02.763Z,94576.00
2018-07-20T09:09:37.406Z,94579.00
2018-07-20T09:12:11.554Z,94576.00
2018-07-20T09:14:45.866Z,94581.00
2018-07-20T09:17:20.062Z,94575.00
2018-07-20T09:19:53.545Z,94577.00
2018-07-20T09:22:26.570Z,94573.00
2018-07-20T09:25:00.410Z,94577.00
2018-07-20T09:27:34.472Z,94581.00
2018-07-20T09:30:07.944Z,94582.00
2018-07-20T09:32:41.475Z,94578.00
2018-07-20T09:35:16.115Z,94568.00
2018-07-20T09:37:49.516Z,94579.00
2018-07-20T09:40:23.539Z,94578.00
2018-07-20T09:42:57.440Z,94576.00
2018-07-20T09:45:30.745Z,94573.00
2018-07-20T09:48:04.665Z,94576.00
2018-07-20T09:50:38.568Z,94581.00
2018-07-20T09:53:12.403Z,94575.00
2018-07-20T09:55:46.170Z,94579.00
2018-07-20T09:58:19.020Z,94584.00
2018-07-20T10:00:53.388Z,94582.00
2018-07-20T10:03:26.951Z,94576.00
2018-07-20T10:06:01.418Z,94574.00
2018-07-20T10:08:35.371Z,94577.00
2018-07-20T10:11:08.909Z,94580.00
2018-07-20T10:13:42.471Z,94577.00
2018-07-20T10:16:16.155Z,94587.00
2018-07-20T10:18:50.390Z,94577.00
2018-07-20T10:21:25.354Z,94573.00
2018-07-20T10:23:59.347Z,94578.00
2018-07-20T10:26:32.872Z,94574.00
2018-07-20T10:29:07.231Z,94582.00
2018-07-20T10:31:41.667Z,94582.00
2018-07-20T10:34:15.574Z,94587.00
2018-07-20T10:36:48.673Z,94580.00
2018-07-20T10:39:24.131Z,94581.00
2018-07-20T10:41:58.470Z,94582.00
2018-07-20T10:44:32.504Z,94585.00
2018-07-20T10:47:05.727Z,94581.00
2018-07-20T10:49:39.539Z,94587.00
2018-07-20T10:52:12.877Z,94589.00
2018-07-20T10:54:46.452Z,94585.00
2018-07-20T10:57:20.755Z,94593.00
2018-07-20T10:59:54.034Z,94580.00
2018-07-20T11:02:27.384Z,94585.00
2018-07-20T11:05:00.506Z,94588.00
2018-07-20T11:07:33.962Z,94589.00
2018-07-20T11:10:07.972Z,94583.00
2018-07-20T11:12:42.217Z,94578.00
2018-07-20T11:15:16.268Z,94573.00
2018-07-20T11:17:50.863Z,94573.00
2018-07-20T11:20:25.426Z,94580.00
2018-07-20T11:22:59.400Z,94578.00
2018-07-20T11:25:33.015Z,94578.00
2018-07-20T11:28:10.608Z,94583.00
2018-07-20T11:30:45.462Z,94575.00
2018-07-20T11:33:19.269Z,94581.00
2018-07-20T11:35:53.782Z,94574.00
2018-07-20T11:38:28.250Z,94572.00
2018-07-20T11:41:01.184Z,94572.00
2018-07-20T11:43:35.105Z,94576.00
2018-07-20T11:46:09.136Z,94577.00
2018-07-20T11:48:43.283Z,94572.00
2018-07-20T11:51:18.083Z,94570.00
2018-07-20T11:53:51.548Z,94572.00
2018-07-20T11:56:24.340Z,94571.00
2018-07-20T11:58:58.154Z,94565.00
2018-07-20T12:01:31.654Z,94565.00
2018-07-20T12:04:05.601Z,94560.00
2018-07-20T12:06:39.825Z,94559.00
2018-07-20T12:09:13.894Z,94563.00
2018-07-20T12:11:49.116Z,94557.00
2018-07-20T12:14:23.381Z,94559.00
2018-07-20T12:16:56.431Z,94572.00
2018-07-20T12:19:30.585Z,94565.00
2018-07-20T12:22:04.659Z,94559.00
2018-07-20T12:24:39.053Z,94552.00
2018-07-20T12:27:12.750Z,94554.00
2018-07-20T12:29:45.768Z,94554.00
2018-07-20T12:32:19.076Z,94554.00
2018-07-20T12:34:57.245Z,94553.00
2018-07-20T12:37:31.666Z,94552.00
2018-07-20T12:40:05.753Z,94551.00
2018-07-20T12:42:39.290Z,94551.00
2018-07-20T12:45:11.930Z,94551.00
2018-07-20T12:47:45.261Z,94548.00
2018-07-20T12:50:19.222Z,94543.00
2018-07-20T12:52:54.489Z,94547.00
2018-07-20T12:55:27.591Z,94544.00
2018-07-20T12:58:02.046Z,94544.00
2018-07-20T13:00:35.357Z,94545.00
2018-07-20T13:03:08.516Z,94547.00
2018-07-20T13:05:42.215Z,94550.00
2018-07-20T13:08:15.977Z,94542.00
2018-07-20T13:10:50.039Z,94554.00
2018-07-20T13:13:24.099Z,94558.00
2018-07-20T13:15:58.958Z,94554.00
2018-07-20T13:18:32.876Z,94555.00
2018-07-20T13:21:06.241Z,94549.00
2018-07-20T13:23:40.110Z,94547.00
2018-07-20T13:26:13.987Z,94549.00
2018-07-20T13:28:48.185Z,94550.00
2018-07-20T13:31:22.769Z,94542.00
2018-07-20T13:33:55.332Z,94545.00
2018-07-20T13:36:27.688Z,94548.00
2018-07-20T13:38:59.558Z,94545.00
2018-07-20T13:41:31.880Z,94539.00
2018-07-20T13:44:04.184Z,94543.00
2018-07-20T13:46:36.379Z,94534.00
2018-07-20T13:49:08.495Z,94531.00
2018-07-20T13:51:40.679Z,94534.00
2018-07-20T13:54:12.668Z,94528.00
2018-07-20T13:56:44.917Z,94533.00
2018-07-20T13:59:18.137Z,94532.00
2018-07-20T14:01:50.239Z,94537.00
2018-07-20T14:04:22.466Z,94536.00
2018-07-20T14:06:54.722Z,94535.00
2018-07-20T14:09:28.251Z,94523.00
2018-07-20T14:12:00.699Z,94532.00
2018-07-20T14:14:32.923Z,94533.00
2018-07-20T14:17:05.333Z,94531.00
2018-07-20T14:19:37.054Z,94527.00
2018-07-20T14:22:09.620Z,94528.00
2018-07-20T14:24:42.425Z,94535.00
2018-07-20T14:27:14.692Z,94537.00
2018-07-20T14:29:46.858Z,94539.00
2018-07-20T14:32:18.930Z,94547.00
2018-07-20T14:34:51.115Z,94545.00
2018-07-20T14:37:23.547Z,94550.00
2018-07-20T14:39:56.033Z,94546.00
2018-07-20T14:42:28.962Z,94553.00
2018-07-20T14:45:01.114Z,94553.00
2018-07-20T14:47:33.401Z,94551.00
2018-07-20T14:50:05.908Z,94557.00
2018-07-20T14:52:38.043Z,94553.00
2018-07-20T14:55:10.619Z,94551.00
2018-07-20T14:57:42.752Z,94552.00
2018-07-20T15:00:14.954Z,94551.00
2018-07-20T15:02:46.813Z,94551.00
2018-07-20T15:05:18.937Z,94541.00
2018-07-20T15:07:51.514Z,94540.00
2018-07-20T15:10:23.784Z,94546.00
2018-07-20T15:12:56.491Z,94540.00
2018-07-20T15:15:28.836Z,94543.00
2018-07-20T15:18:01.031Z,94545.00
2018-07-20T15:20:33.255Z,94547.00
2018-07-20T15:23:05.146Z,94552.00
2018-07-20T15:25:37.416Z,94543.00
2018-07-20T15:28:09.430Z,94534.00
2018-07-20T15:30:41.477Z,94532.00
2018-07-20T15:33:13.678Z,94530.00
2018-07-20T15:35:46.061Z,94537.00
2018-07-20T15:38:18.111Z,94537.00
2018-07-20T15:40:50.448Z,94543.00
2018-07-20T15:43:22.817Z,94541.00
2018-07-20T15:46:05.769Z,94542.00
2018-07-20T15:48:27.089Z,94542.00
2018-07-20T15:50:59.626Z,94542.00
2018-07-20T15:53:36.273Z,94543.00
2018-07-20T15:56:04.852Z,94545.00
2018-07-20T15:58:37.051Z,94548.00
2018-07-20T16:01:09.532Z,94551.00
2018-07-20T16:03:42.370Z,94549.00
2018-07-20T16:06:14.833Z,94544.00
2018-07-20T16:08:47.245Z,94549.00
2018-07-20T16:11:19.762Z,94546.00
2018-07-20T16:13:52.207Z,94547.00
2018-07-20T16:16:24.503Z,94545.00
2018-07-20T16:18:57.391Z,94542.00
2018-07-20T16:21:29.636Z,94548.00
2018-07-20T16:24:01.964Z,94546.00
2018-07-20T16:26:33.941Z,94540.00
2018-07-20T16:29:06.696Z,94542.00
2018-07-20T16:31:39.096Z,94545.00
2018-07-20T16:34:11.957Z,94545.00
2018-07-20T16:36:44.690Z,94551.00
2018-07-20T16:39:17.981Z,94558.00
2018-07-20T16:41:50.442Z,94557.00
2018-07-20T16:44:23.033Z,94559.00
2018-07-20T16:46:55.764Z,94558.00
2018-07-20T16:49:28.484Z,94562.00
2018-07-20T16:52:00.869Z,94558.00
2018-07-20T16:54:33.394Z,94565.00
2018-07-20T16:57:06.154Z,94561.00
2018-07-20T16:59:38.811Z,94558.00
2018-07-20T17:02:11.435Z,94558.00
2018-07-20T17:04:44.126Z,94558.00
2018-07-20T17:07:16.854Z,94554.00
2018-07-20T17:09:49.708Z,94561.00
2018-07-20T17:12:21.926Z,94557.00
2018-07-20T17:14:54.931Z,94556.00
2018-07-20T17:17:27.572Z,94558.00
2018-07-20T17:20:00.306Z,94559.00
2018-07-20T17:22:32.586Z,94562.00
2018-07-20T17:25:05.033Z,94569.00
2018-07-20T17:27:38.491Z,94574.00
2018-07-20T17:30:10.695Z,94571.00
2018-07-20T17:32:43.115Z,94570.00
2018-07-20T17:35:14.544Z,94577.00
2018-07-20T17:37:47.320Z,94576.00
2018-07-20T17:40:19.573Z,94582.00
2018-07-20T17:42:52.156Z,94585.00
2018-07-20T17:45:23.915Z,94587.00
2018-07-20T17:47:56.252Z,94585.00
2018-07-20T17:50:28.571Z,94590.00
2018-07-20T17:53:01.770Z,94591.00
2018-07-20T17:55:33.913Z,94595.00
2018-07-20T17:58:06.615Z,94595.00
2018-07-20T18:00:38.856Z,94604.00
2018-07-20T18:03:10.989Z,94607.00
2018-07-20T18:05:44.020Z,94610.00
2018-07-20T18:08:16.551Z,94615.00
2018-07-20T18:10:48.699Z,94612.00
2018-07-20T18:13:21.672Z,94614.00
2018-07-20T18:15:55.122Z,94622.00
2018-07-20T18:18:27.233Z,94622.00
2018-07-20T18:21:00.148Z,94628.00
2018-07-20T18:23:32.259Z,94637.00
2018-07-20T18:26:05.656Z,94637.00
2018-07-20T18:28:38.114Z,94639.00
2018-07-20T18:31:11.001Z,94646.00
2018-07-20T18:33:43.405Z,94652.00
2018-07-20T18:36:15.875Z,94649.00
2018-07-20T18:38:48.071Z,94654.00
2018-07-20T18:41:19.936Z,94653.00
2018-07-20T18:43:52.065Z,94657.00
2018-07-20T18:46:25.442Z,94658.00
2018-07-20T18:48:58.533Z,94665.00
2018-07-20T18:51:31.955Z,94664.00
2018-07-20T18:54:04.511Z,94662.00
2018-07-20T18:56:37.478Z,94663.00
2018-07-20T18:59:09.931Z,94661.00
2018-07-20T19:01:43.712Z,94662.00
2018-07-20T19:04:17.112Z,94656.00
2018-07-20T19:06:49.596Z,94666.00
2018-07-20T19:09:22.204Z,94660.00
2018-07-20T19:11:56.002Z,94663.00
2018-07-20T19:14:28.607Z,94661.00
2018-07-20T19:17:01.679Z,94665.00
2018-07-20T19:19:34.425Z,94669.00
2018-07-20T19:22:07.674Z,94667.00
2018-07-20T19:24:40.497Z,94670.00
2018-07-20T19:27:14.998Z,94673.00
2018-07-20T19:29:48.044Z,94674.00
2018-07-20T19:32:20.474Z,94675.00
2018-07-20T19:34:53.165Z,94677.00
2018-07-20T19:37:26.180Z,94676.00
2018-07-20T19:39:59.118Z,94680.00
2018-07-20T19:42:32.023Z,94685.00
2018-07-20T19:45:04.971Z,94683.00
2018-07-20T19:47:37.659Z,94681.00
2018-07-20T19:50:10.860Z,94681.00
2018-07-20T19:52:43.156Z,94688.00
2018-07-20T19:55:15.721Z,94686.00
2018-07-20T19:57:48.120Z,94688.00
2018-07-20T20:00:20.853Z,94691.00
2018-07-20T20:02:53.164Z,94689.00
2018-07-20T20:05:26.015Z,94693.00
2018-07-20T20:07:58.254Z,94689.00
2018-07-20T20:10:30.387Z,94687.00
2018-07-20T20:13:02.800Z,94689.00
2018-07-20T20:15:35.418Z,94686.00
2018-07-20T20:18:08.222Z,94684.00
2018-07-20T20:20:40.417Z,94682.00
2018-07-20T20:23:13.060Z,94686.00
2018-07-20T20:25:45.762Z,94687.00
2018-07-20T20:28:18.054Z,94686.00
2018-07-20T20:30:51.561Z,94683.00
2018-07-20T20:33:23.940Z,94686.00
2018-07-20T20:36:23.379Z,94682.00
2018-07-20T20:39:16.120Z,94683.00
2018-07-20T20:41:50.441Z,94681.00
2018-07-20T20:44:22.959Z,94682.00
2018-07-20T20:46:55.308Z,94686.00
2018-07-20T20:49:28.015Z,94679.00
2018-07-20T20:51:59.838Z,94678.00
2018-07-20T20:54:32.133Z,94679.00
2018-07-20T20:57:04.731Z,94674.00
2018-07-20T20:59:37.097Z,94677.00
2018-07-20T21:02:09.432Z,94679.00
2018-07-20T21:04:41.620Z,94681.00
2018-07-20T21:07:14.306Z,94682.00
2018-07-20T21:09:46.666Z,94679.00
2018-07-20T21:12:19.669Z,94683.00
2018-07-20T21:14:52.544Z,94690.00
2018-07-20T21:17:24.734Z,94688.00
2018-07-20T21:19:57.604Z,94690.00
2018-07-20T21:22:29.971Z,94685.00
2018-07-20T21:25:02.304Z,94689.00
2018-07-20T21:27:34.654Z,94690.00
2018-07-20T21:30:07.111Z,94690.00
2018-07-20T21:32:39.510Z,94687.00
2018-07-20T21:35:11.355Z,94688.00
2018-07-20T21:37:43.573Z,94700.00
2018-07-20T21:40:15.419Z,94694.00
2018-07-20T21:42:47.633Z,94695.00
2018-07-20T21:45:19.680Z,94693.00
2018-07-20T21:47:51.813Z,94689.00
2018-07-20T21:50:24.675Z,94686.00
2018-07-20T21:52:57.247Z,94691.00
2018-07-20T21:55:30.341Z,94689.00
2018-07-20T21:58:02.734Z,94686.00
2018-07-20T22:00:35.590Z,94682.00
2018-07-20T22:03:08.082Z,94677.00
2018-07-20T22:05:40.290Z,94680.00
2018-07-20T22:08:12.355Z,94681.00
2018-07-20T22:10:44.804Z,94680.00
2018-07-20T22:13:16.921Z,94671.00
2018-07-20T22:15:48.575Z,94670.00
2018-07-20T22:18:20.894Z,94681.00
2018-07-20T22:20:54.349Z,94677.00
2018-07-20T22:23:26.537Z,94680.00
2018-07-20T22:25:58.929Z,94673.00
2018-07-20T22:28:31.172Z,94676.00
2018-07-20T22:31:03.643Z,94672.00
2018-07-20T22:33:35.514Z,94673.00
2018-07-20T22:36:07.269Z,94675.00
2018-07-20T22:38:38.626Z,94678.00
2018-07-20T22:41:10.881Z,94674.00
2018-07-20T22:43:43.437Z,94671.00
2018-07-20T22:46:15.335Z,94676.00
2018-07-20T22:48:47.840Z,94673.00
2018-07-20T22:51:19.972Z,94670.00
2018-07-20T22:53:52.937Z,94667.00
2018-07-20T22:56:25.306Z,94671.00
2018-07-20T22:58:57.580Z,94680.00
2018-07-20T23:01:30.919Z,94675.00
2018-07-20T23:04:03.050Z,94677.00
2018-07-20T23:06:35.715Z,94672.00
2018-07-20T23:09:10.561Z,94676.00
2018-07-20T23:11:42.757Z,94676.00
2018-07-20T23:14:14.804Z,94675.00
2018-07-20T23:16:47.090Z,94678.00
2018-07-20T23:19:19.515Z,94680.00
2018-07-20T23:21:52.031Z,94681.00
2018-07-20T23:24:24.502Z,94675.00
2018-07-20T23:26:56.949Z,94676.00
2018-07-20T23:29:29.537Z,94667.00
2018-07-20T23:32:00.971Z,94667.00
2018-07-20T23:34:33.099Z,94668.00
2018-07-20T23:37:05.277Z,94675.00
2018-07-20T23:39:37.547Z,94672.00
2018-07-20T23:42:09.487Z,94676.00
2018-07-20T23:44:41.580Z,94686.00
2018-07-20T23:47:13.668Z,94686.00
2018-07-20T23:52:53.044Z,94689.00
2018-07-20T23:55:25.482Z,94688.00
2018-07-20T23:57:57.603Z,94693.00
